Terminal Aerodrome Forecast
Issued by NWS Omaha/Valley, NE

Home | Current Version | Previous Version | Graphics & Text | Print | Product List | Glossary On
Versions: 1 2 3 4 5 6 7 8 9 10 11 12 13 14 15 16 17 18 19 20 21 22 23 24 25 26 27 28 29 30 31 32 33 34 35 36 37 38 39 40 41 42
000
FTUS43 KOAX 191125
TAFOFK
TAF
KOFK 191125Z 1912/2012 17011KT P6SM OVC011
      TEMPO 1912/1915 P6SM SCT012
     FM191500 20017G24KT P6SM SCT040
     FM200000 23012KT P6SM FEW060 PROB30 2002/2006 P6SM TSRA
      BKN040CB
     FM201000 27005KT P6SM BKN250=

USA.gov is the U.S. government's official web portal to all federal, state and local government web resources and services.